Time;durP1;ratioP1;P1;durP2;ratioP2;P2;SDS_P1;SDS_P2;PMS_P1;PMS_P2;Temp;Humidity;BMP_temperature;BMP_pressure;BME280_temperature;BME280_humidity;BME280_pressure;Samples;Min_cycle;Max_cycle;Signal;HPM_P1;HPM_P2
2022/06/10 00:01:03;;;;;;;10.90;9.00;;;;;;;17.33;100.00;99809.84;5549033;32;33940;-71
2022/06/10 00:04:06;;;;;;;11.60;8.75;;;;;;;17.32;100.00;99800.16;5548908;32;33947;-73
2022/06/10 00:07:09;;;;;;;13.25;8.27;;;;;;;17.31;100.00;99804.69;5548041;32;34476;-74
2022/06/10 00:10:14;;;;;;;12.37;8.38;;;;;;;17.32;100.00;99818.94;5547930;32;33876;-70
2022/06/10 00:13:22;;;;;;;12.73;8.02;;;;;;;17.28;100.00;99821.22;5535043;32;33157;-70
2022/06/10 00:16:25;;;;;;;10.20;7.90;;;;;;;17.33;100.00;99825.94;5549110;32;34707;-72
2022/06/10 00:19:28;;;;;;;10.75;8.23;;;;;;;17.30;100.00;99823.69;5548124;32;32725;-73
2022/06/10 00:22:31;;;;;;;8.25;7.40;;;;;;;17.31;100.00;99831.50;5548907;32;34004;-72
2022/06/10 00:25:36;;;;;;;10.95;8.65;;;;;;;17.28;100.00;99839.19;5548774;32;33862;-70
2022/06/10 00:28:40;;;;;;;12.10;7.90;;;;;;;17.21;100.00;99846.47;5548157;32;34062;-72
2022/06/10 00:31:42;;;;;;;11.57;8.02;;;;;;;17.25;100.00;99858.38;5546885;32;32703;-73
2022/06/10 00:34:45;;;;;;;10.27;8.05;;;;;;;17.25;100.00;99850.34;5547783;32;35170;-72
2022/06/10 00:37:48;;;;;;;9.23;7.57;;;;;;;17.15;100.00;99850.88;5547750;32;34024;-72
2022/06/10 00:40:54;;;;;;;10.10;7.62;;;;;;;17.11;100.00;99847.00;5547574;32;34829;-72
2022/06/10 00:43:56;;;;;;;9.93;7.60;;;;;;;17.06;100.00;99840.66;5547370;32;33611;-71
2022/06/10 00:47:09;;;;;;;12.23;8.00;;;;;;;16.99;100.00;99837.25;5549002;32;34639;-73
2022/06/10 00:50:25;;;;;;;13.10;7.70;;;;;;;17.00;100.00;99837.00;5548621;32;35268;-70
2022/06/10 00:53:34;;;;;;;10.75;7.53;;;;;;;16.95;100.00;99848.41;5548538;32;34387;-73
2022/06/10 00:56:40;;;;;;;11.38;7.55;;;;;;;16.99;100.00;99851.47;5548515;32;34327;-71
2022/06/10 00:59:52;;;;;;;9.95;7.28;;;;;;;16.94;100.00;99856.69;5547460;32;34441;-73
2022/06/10 01:02:55;;;;;;;9.55;7.68;;;;;;;16.93;100.00;99857.72;5541235;32;33614;-73
2022/06/10 01:06:00;;;;;;;10.32;6.95;;;;;;;16.95;100.00;99869.00;5537727;32;33745;-71
2022/06/10 01:09:03;;;;;;;8.43;7.37;;;;;;;16.93;100.00;99863.06;5538228;32;33853;-71
2022/06/10 01:12:27;;;;;;;15.35;7.55;;;;;;;16.91;100.00;99870.50;5535281;32;34738;-72
2022/06/10 01:15:46;;;;;;;11.73;7.72;;;;;;;17.00;100.00;99879.87;5515498;32;33284;-74
2022/06/10 01:19:10;;;;;;;12.10;8.02;;;;;;;16.93;100.00;99881.84;5529107;32;34746;-70
2022/06/10 01:22:57;;;;;;;11.98;7.93;;;;;;;16.98;100.00;99875.81;5529078;32;34311;-74
2022/06/10 01:26:27;;;;;;;10.90;7.40;;;;;;;16.93;100.00;99879.97;5529044;32;33842;-74
2022/06/10 01:29:48;;;;;;;9.65;7.37;;;;;;;16.97;100.00;99877.66;5528989;32;34038;-71
2022/06/10 01:33:08;;;;;;;11.90;7.25;;;;;;;16.91;100.00;99878.53;5528988;32;33894;-70
2022/06/10 01:36:58;;;;;;;11.30;7.22;;;;;;;16.92;100.00;99877.50;5529050;32;34481;-71
2022/06/10 01:40:14;;;;;;;8.63;6.70;;;;;;;16.94;100.00;99867.41;5527224;32;34442;-72
2022/06/10 01:43:55;;;;;;;10.85;7.47;;;;;;;16.95;100.00;99885.91;5529035;32;33916;-71
2022/06/10 01:47:06;;;;;;;8.50;6.57;;;;;;;16.97;100.00;99917.84;5526524;32;34463;-72
2022/06/10 01:50:22;;;;;;;11.93;7.05;;;;;;;16.97;100.00;99914.34;5527826;32;33872;-72
2022/06/10 01:53:44;;;;;;;7.57;6.62;;;;;;;16.94;100.00;99919.09;5528884;32;34119;-72
2022/06/10 01:56:51;;;;;;;10.43;7.05;;;;;;;16.98;100.00;99924.03;5528706;32;34055;-71
2022/06/10 02:00:12;;;;;;;12.23;7.40;;;;;;;16.95;100.00;99927.97;5528704;32;34646;-80
2022/06/10 02:03:25;;;;;;;12.50;8.60;;;;;;;16.81;100.00;99921.09;5530550;32;33877;-77
2022/06/10 02:06:48;;;;;;;9.75;7.87;;;;;;;16.63;100.00;99904.97;5530181;32;33918;-80
2022/06/10 02:10:00;;;;;;;11.93;8.55;;;;;;;16.48;100.00;99905.25;5534195;32;34881;-79
2022/06/10 02:13:09;;;;;;;12.32;9.32;;;;;;;16.39;100.00;99920.75;5534502;32;34121;-82
2022/06/10 02:16:20;;;;;;;13.65;8.88;;;;;;;16.33;100.00;99926.16;5532868;32;34371;-78
2022/06/10 02:19:27;;;;;;;11.50;9.18;;;;;;;16.36;100.00;99928.41;5531396;32;34624;-81
2022/06/10 02:22:40;;;;;;;13.62;9.52;;;;;;;16.29;100.00;99944.50;5532298;32;35240;-80
2022/06/10 02:25:46;;;;;;;14.20;9.32;;;;;;;16.31;100.00;99957.69;5535767;32;34076;-78
2022/06/10 02:28:54;;;;;;;11.02;9.82;;;;;;;16.33;100.00;99959.09;5532258;32;33830;-80
2022/06/10 02:31:59;;;;;;;11.10;9.52;;;;;;;16.32;100.00;99964.66;5531831;32;34027;-82
2022/06/10 02:35:04;;;;;;;12.37;9.15;;;;;;;16.29;100.00;99959.75;5531571;32;34137;-77
2022/06/10 02:38:31;;;;;;;10.48;9.00;;;;;;;16.30;100.00;99950.69;5529828;32;34938;-76
2022/06/10 02:41:54;;;;;;;13.00;9.43;;;;;;;16.33;100.00;99966.31;5530840;32;34027;-78
2022/06/10 02:45:19;;;;;;;15.25;9.65;;;;;;;16.27;100.00;99967.97;5531601;32;34331;-79
2022/06/10 02:48:43;;;;;;;12.15;9.32;;;;;;;16.35;100.00;99967.75;5529775;32;33822;-78
2022/06/10 02:51:46;;;;;;;12.43;9.15;;;;;;;16.36;100.00;99971.25;5531083;32;35040;-79
2022/06/10 02:54:49;;;;;;;12.70;8.88;;;;;;;16.30;100.00;99978.28;5531302;32;34676;-78
2022/06/10 03:01:39;;;;;;;11.18;9.15;;;;;;;16.21;100.00;99990.28;5529301;32;33224;-78
2022/06/10 03:05:02;;;;;;;10.98;8.38;;;;;;;16.21;100.00;99994.81;5529193;32;34117;-77
2022/06/10 03:08:24;;;;;;;12.40;8.85;;;;;;;16.23;100.00;100006.94;5528535;32;34156;-77
2022/06/10 03:11:40;;;;;;;10.55;8.10;;;;;;;16.23;100.00;100006.94;5528359;32;34220;-77
2022/06/10 03:15:05;;;;;;;9.25;7.00;;;;;;;16.25;100.00;100007.53;5527457;32;34019;-77
2022/06/10 03:18:39;;;;;;;12.98;8.05;;;;;;;16.31;100.00;100004.03;5529358;32;33139;-77
2022/06/10 03:21:54;;;;;;;8.98;6.85;;;;;;;16.33;100.00;99999.25;5525738;32;34594;-77
2022/06/10 03:25:02;;;;;;;12.40;6.90;;;;;;;16.44;100.00;100016.50;5527515;32;34344;-77
2022/06/10 03:28:35;;;;;;;9.18;6.90;;;;;;;16.47;100.00;100018.75;5527508;32;33964;-75
2022/06/10 03:31:46;;;;;;;9.57;6.60;;;;;;;16.51;100.00;100011.91;5522561;32;33446;-76
2022/06/10 03:34:58;;;;;;;7.65;6.30;;;;;;;16.64;100.00;100008.38;5527336;32;33885;-76
2022/06/10 03:38:04;;;;;;;9.25;6.68;;;;;;;16.66;100.00;100009.78;5527536;32;34061;-77
2022/06/10 03:41:17;;;;;;;7.82;6.10;;;;;;;16.81;100.00;100004.13;5526583;32;33730;-76
2022/06/10 03:44:21;;;;;;;11.55;6.32;;;;;;;16.86;100.00;100005.12;5527077;32;33798;-75
2022/06/10 03:47:31;;;;;;;6.10;5.32;;;;;;;16.98;100.00;100005.25;5527008;32;34025;-78
2022/06/10 03:50:38;;;;;;;6.82;5.25;;;;;;;17.05;100.00;100008.69;5526734;32;34822;-74
2022/06/10 03:53:42;;;;;;;7.87;4.95;;;;;;;17.21;100.00;100015.38;5526055;32;34411;-75
2022/06/10 03:56:45;;;;;;;8.05;4.97;;;;;;;17.19;100.00;100017.44;5526830;32;33940;-75
2022/06/10 03:59:48;;;;;;;7.05;4.82;;;;;;;17.19;100.00;100018.25;5526676;32;34421;-75
2022/06/10 04:02:51;;;;;;;5.07;4.30;;;;;;;17.24;100.00;100020.28;5526814;32;34082;-75
2022/06/10 04:05:54;;;;;;;6.32;3.90;;;;;;;17.28;100.00;100024.97;5527941;32;35272;-73
2022/06/10 04:09:16;;;;;;;4.20;3.50;;;;;;;17.26;100.00;100018.22;5529772;32;33960;-75
2022/06/10 04:12:21;;;;;;;4.22;3.70;;;;;;;17.25;100.00;100024.59;5529096;32;33787;-75
2022/06/10 04:15:27;;;;;;;5.22;3.90;;;;;;;17.31;100.00;100034.47;5529565;32;34402;-75
2022/06/10 04:18:29;;;;;;;4.57;3.80;;;;;;;17.21;100.00;100028.78;5529777;32;33701;-74
2022/06/10 04:21:32;;;;;;;5.25;3.90;;;;;;;17.28;100.00;100037.59;5529361;32;34150;-73
2022/06/10 04:24:36;;;;;;;5.43;3.62;;;;;;;17.19;100.00;100033.50;5529494;32;34607;-73
2022/06/10 04:27:39;;;;;;;4.53;3.50;;;;;;;17.16;100.00;100044.69;5529254;32;34730;-74
2022/06/10 04:30:45;;;;;;;4.28;3.60;;;;;;;17.16;100.00;100053.56;5529348;32;34697;-70
2022/06/10 04:33:48;;;;;;;4.40;3.58;;;;;;;17.14;100.00;100044.91;5529392;32;34436;-72
2022/06/10 04:36:51;;;;;;;5.40;4.40;;;;;;;17.10;100.00;100056.28;5529418;32;33608;-73
2022/06/10 04:39:54;;;;;;;7.32;4.53;;;;;;;17.04;100.00;100070.56;5529076;32;34689;-76
2022/06/10 04:42:58;;;;;;;7.72;4.80;;;;;;;17.04;100.00;100063.31;5529333;32;34712;-74
2022/06/10 04:46:03;;;;;;;5.37;4.60;;;;;;;17.10;100.00;100072.34;5529413;32;34024;-72
2022/06/10 04:49:06;;;;;;;4.78;4.37;;;;;;;17.22;100.00;100076.00;5529081;32;33937;-71
2022/06/10 04:52:09;;;;;;;6.03;4.87;;;;;;;17.24;100.00;100080.06;5529252;32;34055;-72
2022/06/10 04:55:12;;;;;;;7.03;5.05;;;;;;;17.35;100.00;100083.91;5531773;32;33963;-72
2022/06/10 04:58:16;;;;;;;7.22;4.78;;;;;;;17.42;100.00;100082.00;5548272;32;34017;-73
2022/06/10 05:01:18;;;;;;;5.20;4.45;;;;;;;17.49;100.00;100081.94;5548679;32;33846;-72
2022/06/10 05:04:27;;;;;;;5.80;4.47;;;;;;;17.60;100.00;100082.09;5548578;32;34497;-73
2022/06/10 05:07:29;;;;;;;5.85;4.28;;;;;;;17.71;100.00;100081.37;5548112;32;34620;-72
2022/06/10 05:10:32;;;;;;;7.07;4.40;;;;;;;17.66;100.00;100089.25;5548174;32;34558;-72
2022/06/10 05:13:36;;;;;;;6.20;4.20;;;;;;;17.81;100.00;100084.34;5541346;32;35303;-72
2022/06/10 05:16:39;;;;;;;5.47;4.37;;;;;;;17.93;100.00;100087.13;5533696;32;34416;-71
2022/06/10 05:19:42;;;;;;;7.37;4.50;;;;;;;17.98;100.00;100091.81;5532663;32;34459;-72
2022/06/10 05:22:45;;;;;;;4.72;4.28;;;;;;;18.11;100.00;100095.16;5541125;32;34579;-72
2022/06/10 05:25:48;;;;;;;7.80;4.70;;;;;;;18.03;100.00;100100.84;5528658;32;33693;-72
2022/06/10 05:28:51;;;;;;;10.50;4.90;;;;;;;17.93;100.00;100107.75;5538263;32;34490;-72
2022/06/10 05:31:54;;;;;;;8.38;4.97;;;;;;;17.92;100.00;100106.94;5532627;32;34431;-72
2022/06/10 05:34:57;;;;;;;9.48;5.32;;;;;;;17.99;100.00;100114.94;5527607;32;34516;-72
2022/06/10 05:38:00;;;;;;;7.90;5.18;;;;;;;17.97;100.00;100117.84;5527420;32;34678;-72
2022/06/10 05:42:04;;;;;;;8.48;4.70;;;;;;;18.15;100.00;100114.38;5528464;32;34650;-71
2022/06/10 05:44:26;;;;;;;6.07;4.95;;;;;;;18.14;100.00;100116.22;5542469;32;34530;-70
2022/06/10 05:47:33;;;;;;;6.28;4.97;;;;;;;18.20;100.00;100127.94;5528261;32;32543;-72
2022/06/10 05:50:40;;;;;;;5.45;4.53;;;;;;;18.35;100.00;100125.69;5527002;32;32308;-71
2022/06/10 05:53:43;;;;;;;7.03;4.47;;;;;;;18.38;100.00;100136.00;5528287;32;34336;-71
2022/06/10 05:56:46;;;;;;;4.87;4.37;;;;;;;18.60;100.00;100139.03;5528491;32;34055;-71
2022/06/10 05:59:52;;;;;;;5.95;4.57;;;;;;;18.78;100.00;100147.09;5528008;32;34719;-70
2022/06/10 06:02:55;;;;;;;6.47;4.97;;;;;;;18.82;100.00;100148.28;5528378;32;34403;-71
2022/06/10 06:05:59;;;;;;;5.35;4.37;;;;;;;18.88;100.00;100150.03;5528260;32;34553;-69
2022/06/10 06:09:03;;;;;;;9.52;4.75;;;;;;;19.09;100.00;100146.88;5528365;32;34705;-68
2022/06/10 06:12:06;;;;;;;7.45;4.90;;;;;;;19.03;100.00;100155.00;5527882;32;33728;-70
2022/06/10 06:15:09;;;;;;;7.30;4.85;;;;;;;19.14;100.00;100150.72;5533525;32;34511;-70
2022/06/10 06:18:13;;;;;;;5.40;4.43;;;;;;;19.37;100.00;100159.69;5535681;32;34155;-68
2022/06/10 06:21:17;;;;;;;6.55;4.70;;;;;;;19.38;100.00;100157.81;5544743;32;34643;-70
2022/06/10 06:24:24;;;;;;;5.20;3.95;;;;;;;19.35;100.00;100159.13;5534219;32;34002;-70
2022/06/10 06:27:27;;;;;;;5.10;3.70;;;;;;;19.37;100.00;100165.06;5527349;32;33924;-70
2022/06/10 06:30:36;;;;;;;6.32;3.90;;;;;;;19.35;100.00;100167.19;5526664;32;34005;-70
2022/06/10 06:33:41;;;;;;;6.77;3.60;;;;;;;19.75;100.00;100171.97;5527560;32;34035;-70
2022/06/10 06:36:46;;;;;;;6.07;3.75;;;;;;;19.87;100.00;100179.00;5534008;32;34639;-70
2022/06/10 06:39:49;;;;;;;7.80;4.03;;;;;;;20.16;100.00;100181.81;5535236;32;34208;-70
2022/06/10 06:42:52;;;;;;;7.15;3.35;;;;;;;20.54;100.00;100184.84;5535019;32;34583;-71
2022/06/10 06:45:54;;;;;;;8.25;3.45;;;;;;;20.63;100.00;100177.19;5536416;32;33812;-71
2022/06/10 06:48:57;;;;;;;4.50;2.75;;;;;;;20.77;99.83;100187.47;5532293;32;32686;-71
2022/06/10 06:52:00;;;;;;;4.60;3.05;;;;;;;20.87;98.61;100186.03;5535539;32;34158;-70
2022/06/10 06:55:03;;;;;;;5.22;3.00;;;;;;;20.88;98.16;100183.09;5539009;32;33840;-70
2022/06/10 06:58:07;;;;;;;5.82;3.12;;;;;;;21.36;98.13;100171.88;5530042;32;33064;-71
2022/06/10 07:01:11;;;;;;;8.00;2.67;;;;;;;21.28;95.86;100190.34;5534482;32;34230;-70
2022/06/10 07:04:13;;;;;;;4.32;2.17;;;;;;;21.08;95.13;100193.47;5526244;32;33863;-71
2022/06/10 07:07:19;;;;;;;3.72;2.50;;;;;;;21.12;91.59;100191.91;5526697;32;34335;-68
2022/06/10 07:10:22;;;;;;;4.47;2.50;;;;;;;21.21;92.16;100193.19;5527501;32;34547;-68
2022/06/10 07:13:26;;;;;;;5.18;2.47;;;;;;;21.43;91.04;100186.06;5526983;32;34634;-68
2022/06/10 07:16:28;;;;;;;6.87;3.25;;;;;;;21.63;90.09;100185.59;5528113;32;34927;-69
2022/06/10 07:19:32;;;;;;;3.92;2.42;;;;;;;21.80;88.69;100181.00;5527320;32;34138;-70
2022/06/10 07:22:35;;;;;;;6.22;2.53;;;;;;;21.93;87.72;100191.50;5526951;32;34631;-69
2022/06/10 07:25:38;;;;;;;4.93;2.60;;;;;;;21.99;85.90;100195.91;5527195;32;34099;-68
2022/06/10 07:28:40;;;;;;;5.82;2.28;;;;;;;21.84;83.95;100194.81;5526972;32;33973;-69
2022/06/10 07:31:44;;;;;;;8.00;2.10;;;;;;;22.24;81.98;100192.78;5530468;32;34311;-70
2022/06/10 07:34:47;;;;;;;3.20;2.22;;;;;;;22.75;78.63;100191.59;5539872;32;33945;-70
2022/06/10 07:37:51;;;;;;;2.78;1.73;;;;;;;23.01;77.24;100187.28;5527390;32;34437;-71
2022/06/10 07:44:20;;;;;;;3.05;1.70;;;;;;;24.04;68.72;100196.13;5528828;32;35311;-69
2022/06/10 07:47:23;;;;;;;6.68;2.08;;;;;;;24.73;65.72;100187.88;5531659;32;33667;-70
2022/06/10 07:50:26;;;;;;;4.20;1.70;;;;;;;24.23;67.47;100208.19;5529037;32;33762;-69
2022/06/10 07:53:30;;;;;;;6.03;1.60;;;;;;;24.11;66.30;100208.34;5529412;32;34378;-70
2022/06/10 07:56:34;;;;;;;3.33;1.92;;;;;;;23.89;67.25;100198.72;5529504;32;35032;-69
2022/06/10 07:59:40;;;;;;;3.78;1.80;;;;;;;24.20;66.27;100203.31;5529439;32;34145;-68
2022/06/10 08:02:43;;;;;;;4.65;1.73;;;;;;;24.94;62.37;100209.41;5528459;32;34473;-68
2022/06/10 08:05:46;;;;;;;3.62;1.52;;;;;;;25.18;62.93;100198.06;5529295;32;35273;-68
2022/06/10 08:08:50;;;;;;;3.45;1.98;;;;;;;25.10;61.79;100207.56;5529294;32;34435;-68
2022/06/10 08:11:52;;;;;;;2.90;1.70;;;;;;;25.17;62.69;100204.59;5542535;32;33758;-69
2022/06/10 08:14:55;;;;;;;2.53;1.80;;;;;;;25.67;60.31;100210.13;5538126;32;34628;-67
2022/06/10 08:17:59;;;;;;;5.12;1.77;;;;;;;24.86;62.84;100207.16;5547744;32;33910;-68
2022/06/10 08:24:23;;;;;;;4.40;1.80;;;;;;;24.94;62.25;100214.81;5548393;32;34655;-69
2022/06/10 08:27:26;;;;;;;2.70;1.62;;;;;;;25.44;62.99;100219.56;5548570;32;34004;-68
2022/06/10 08:30:28;;;;;;;2.50;1.50;;;;;;;25.17;60.83;100218.16;5548479;32;34470;-69
2022/06/10 08:33:32;;;;;;;6.07;2.00;;;;;;;25.68;59.06;100225.34;5548171;32;34817;-68
2022/06/10 08:36:37;;;;;;;4.28;1.70;;;;;;;25.77;57.69;100221.00;5545334;32;35274;-67
2022/06/10 08:39:40;;;;;;;3.42;1.67;;;;;;;25.62;57.43;100220.16;5540298;32;34064;-68
2022/06/10 08:42:43;;;;;;;7.68;2.00;;;;;;;26.04;56.45;100218.00;5548342;32;33824;-69
2022/06/10 08:46:16;;;;;;;3.33;1.87;;;;;;;27.59;53.04;100225.09;5547127;32;34600;-68
2022/06/10 08:49:32;;;;;;;2.47;1.90;;;;;;;28.88;49.42;100223.31;5537098;32;34496;-68
2022/06/10 08:53:11;;;;;;;5.93;1.98;;;;;;;29.77;45.40;100218.72;5528212;32;33999;-69
2022/06/10 08:56:22;;;;;;;3.65;1.98;;;;;;;29.31;46.46;100228.75;5547395;32;33655;-69
2022/06/10 08:59:38;;;;;;;6.50;1.95;;;;;;;28.83;47.97;100222.56;5540711;32;34529;-68
2022/06/10 09:03:00;;;;;;;6.80;1.45;;;;;;;29.72;46.41;100220.75;5540501;32;33920;-70
2022/06/10 09:06:08;;;;;;;3.95;1.90;;;;;;;29.08;48.33;100221.41;5548030;32;34857;-69
2022/06/10 09:09:14;;;;;;;3.15;1.55;;;;;;;29.86;45.87;100224.34;5547921;32;34660;-68
2022/06/10 09:12:24;;;;;;;3.00;1.50;;;;;;;30.38;46.17;100233.31;5546975;32;34168;-70
2022/06/10 09:15:30;;;;;;;2.58;1.62;;;;;;;30.34;43.44;100224.91;5547641;32;34676;-69
2022/06/10 09:18:58;;;;;;;7.90;1.50;;;;;;;30.35;42.54;100226.53;5546962;32;34495;-68
2022/06/10 09:22:10;;;;;;;;;;;;;;;30.23;44.92;100223.47;5548170;32;34103;-68
2022/06/10 09:25:23;;;;;;;4.32;1.92;;;;;;;29.90;44.29;100227.34;5548210;32;33982;-69
2022/06/10 09:28:31;;;;;;;6.25;2.10;;;;;;;29.60;46.42;100231.34;5547421;32;34545;-67
2022/06/10 09:31:47;;;;;;;3.45;1.55;;;;;;;30.74;44.18;100234.28;5546446;32;34541;-68
2022/06/10 09:35:16;;;;;;;7.70;1.80;;;;;;;30.73;43.84;100231.84;5548067;32;33807;-67
2022/06/10 09:38:25;;;;;;;3.35;1.83;;;;;;;31.11;44.66;100236.00;5548100;32;34517;-69
2022/06/10 09:41:28;;;;;;;3.67;1.77;;;;;;;30.82;43.89;100235.47;5515605;32;32257;-68
2022/06/10 09:44:41;;;;;;;4.28;2.00;;;;;;;30.69;44.54;100239.06;5540020;32;34081;-69
2022/06/10 09:48:03;;;;;;;2.97;1.70;;;;;;;29.95;45.46;100236.28;5543507;32;34027;-69
2022/06/10 09:51:29;;;;;;;3.45;1.80;;;;;;;29.92;44.48;100228.62;5528477;32;34047;-69
2022/06/10 09:54:58;;;;;;;1.80;1.58;;;;;;;31.05;43.44;100235.28;5528474;32;33910;-67
2022/06/10 09:58:17;;;;;;;;;;;;;;;31.65;42.07;100240.53;5527001;32;33794;-69
2022/06/10 10:01:35;;;;;;;3.47;1.80;;;;;;;30.97;43.28;100232.44;5544570;32;34678;-67
2022/06/10 10:04:52;;;;;;;3.10;1.63;;;;;;;31.79;42.49;100224.84;5547930;32;35323;-69
2022/06/10 10:08:07;;;;;;;1.65;1.40;;;;;;;31.42;43.04;100236.09;5547783;32;33294;-69
2022/06/10 10:11:34;;;;;;;1.70;1.60;;;;;;;32.08;41.46;100224.38;5547916;32;34109;-69
2022/06/10 10:14:53;;;;;;;7.10;1.70;;;;;;;31.09;41.96;100232.72;5546361;32;32803;-69
2022/06/10 10:18:16;;;;;;;2.85;1.65;;;;;;;31.63;41.22;100231.00;5544753;32;33915;-69
2022/06/10 10:21:30;;;;;;;4.90;1.95;;;;;;;31.71;40.79;100225.56;5529128;32;33889;-68
2022/06/10 10:24:40;;;;;;;2.55;1.70;;;;;;;31.43;43.01;100233.06;5529373;32;34354;-69
2022/06/10 10:27:45;;;;;;;3.58;1.67;;;;;;;32.14;40.55;100227.81;5540587;32;156872;-68
2022/06/10 10:31:14;;;;;;;1.80;1.45;;;;;;;33.03;38.86;100227.53;5547494;32;34562;-68
2022/06/10 10:34:22;;;;;;;5.45;1.85;;;;;;;33.72;36.48;100239.44;5547045;32;34127;-69
2022/06/10 10:37:29;;;;;;;3.78;1.40;;;;;;;33.39;37.44;100233.59;5546554;32;34111;-69
2022/06/10 10:40:43;;;;;;;5.40;1.98;;;;;;;33.57;37.07;100231.62;5545917;32;33937;-68
2022/06/10 10:43:48;;;;;;;3.17;1.60;;;;;;;33.13;38.15;100229.97;5527425;32;34094;-68
2022/06/10 10:47:01;;;;;;;3.15;1.52;;;;;;;33.40;36.46;100223.41;5527432;32;33871;-69
2022/06/10 10:50:04;;;;;;;5.00;1.40;;;;;;;31.79;39.64;100221.28;5527666;32;34063;-67
2022/06/10 10:53:30;;;;;;;7.37;2.17;;;;;;;31.79;40.02;100211.13;5527447;32;34538;-69
2022/06/10 10:56:37;;;;;;;2.67;1.60;;;;;;;34.69;35.62;100220.41;5527101;32;34111;-68
2022/06/10 10:59:43;;;;;;;4.18;1.70;;;;;;;34.39;36.85;100227.78;5527502;32;33819;-69
2022/06/10 11:02:46;;;;;;;2.30;1.70;;;;;;;33.56;37.67;100203.31;5527297;32;34054;-68
2022/06/10 11:05:52;;;;;;;5.15;1.73;;;;;;;34.45;35.55;100212.72;5527308;32;34599;-68
2022/06/10 11:08:58;;;;;;;4.10;1.70;;;;;;;33.57;36.60;100215.12;5526268;32;32793;-67
2022/06/10 11:12:03;;;;;;;4.37;1.80;;;;;;;35.10;34.12;100222.44;5527654;32;34017;-67
2022/06/10 11:15:17;;;;;;;3.85;1.90;;;;;;;35.34;32.70;100216.28;5528168;32;34164;-67
2022/06/10 11:18:20;;;;;;;7.20;1.80;;;;;;;35.97;34.27;100217.84;5529969;32;33799;-67
2022/06/10 11:21:27;;;;;;;5.80;1.60;;;;;;;33.37;35.46;100196.53;5529788;32;33753;-67
2022/06/10 11:24:35;;;;;;;1.85;1.45;;;;;;;33.07;35.10;100201.81;5529580;32;33979;-66
2022/06/10 11:27:40;;;;;;;2.65;1.92;;;;;;;32.96;35.97;100202.47;5529296;32;34999;-67
2022/06/10 11:30:48;;;;;;;2.53;1.62;;;;;;;33.11;39.58;100202.00;5528401;32;33999;-68
2022/06/10 11:33:56;;;;;;;3.17;1.70;;;;;;;35.82;32.24;100201.91;5529493;32;34004;-68
2022/06/10 11:36:58;;;;;;;2.47;2.03;;;;;;;35.79;33.29;100195.09;5536427;32;34919;-67
2022/06/10 11:40:26;;;;;;;5.22;1.92;;;;;;;33.37;39.13;100194.59;5547680;32;33702;-68
2022/06/10 11:43:44;;;;;;;6.20;1.95;;;;;;;32.61;39.96;100191.34;5520936;32;33551;-66
2022/06/10 11:47:04;;;;;;;2.60;1.80;;;;;;;33.19;37.70;100195.72;5548264;32;33853;-67
2022/06/10 11:50:16;;;;;;;2.58;2.08;;;;;;;34.70;35.53;100202.72;5548423;32;34192;-69
2022/06/10 11:53:40;;;;;;;6.28;1.90;;;;;;;34.96;34.06;100188.78;5548141;32;33926;-70
2022/06/10 12:00:55;;;;;;;3.72;1.95;;;;;;;36.48;33.20;100184.09;5546529;32;35196;-69
2022/06/10 12:04:09;;;;;;;8.20;2.23;;;;;;;35.20;35.51;100178.72;5539757;32;34182;-68
2022/06/10 12:07:20;;;;;;;2.30;1.77;;;;;;;35.99;34.54;100169.37;5531469;32;34015;-68
2022/06/10 12:10:31;;;;;;;4.75;1.80;;;;;;;36.04;34.12;100163.66;5538848;32;33988;-68
2022/06/10 12:13:55;;;;;;;2.15;1.80;;;;;;;36.46;34.14;100153.22;5537000;32;33669;-68
2022/06/10 12:17:06;;;;;;;9.30;2.12;;;;;;;36.28;34.19;100162.06;5540158;32;33903;-68
2022/06/10 12:20:16;;;;;;;4.70;2.10;;;;;;;35.50;35.54;100151.84;5543527;32;33605;-67
2022/06/10 12:23:24;;;;;;;5.25;1.87;;;;;;;33.97;38.53;100145.00;5533930;32;32508;-67
2022/06/10 12:26:58;;;;;;;3.08;1.83;;;;;;;35.51;35.82;100141.63;5544873;32;32801;-66
2022/06/10 12:30:02;;;;;;;5.00;2.05;;;;;;;34.30;37.31;100141.66;5528169;32;34348;-67
2022/06/10 12:33:11;;;;;;;2.42;1.80;;;;;;;31.97;40.80;100123.41;5534804;32;34048;-66
2022/06/10 12:36:20;;;;;;;2.50;1.90;;;;;;;32.13;40.41;100122.72;5548545;32;33944;-67
2022/06/10 12:39:22;;;;;;;;;;;;;;;32.53;39.52;100114.44;5548226;32;34280;-67
2022/06/10 12:42:38;;;;;;;4.15;2.03;;;;;;;32.74;41.08;100113.53;5545640;32;34660;-68
2022/06/10 12:45:44;;;;;;;4.97;2.30;;;;;;;33.00;38.82;100121.78;5547800;32;34418;-67
2022/06/10 12:48:47;;;;;;;3.97;2.22;;;;;;;30.97;42.34;100118.19;5548569;32;33997;-66
2022/06/10 12:52:19;;;;;;;5.40;2.00;;;;;;;30.21;44.88;100125.22;5548124;32;34210;-66
2022/06/10 12:55:25;;;;;;;4.12;1.70;;;;;;;29.56;46.01;100127.25;5548683;32;34140;-67
2022/06/10 12:58:37;;;;;;;4.28;1.95;;;;;;;28.61;47.55;100122.03;5548071;32;34585;-66
2022/06/10 13:01:43;;;;;;;3.25;1.80;;;;;;;28.67;48.64;100122.78;5548027;32;34581;-68
2022/06/10 13:04:58;;;;;;;4.62;2.00;;;;;;;28.57;49.29;100128.37;5548297;32;33989;-66
2022/06/10 13:08:02;;;;;;;2.67;1.80;;;;;;;28.76;48.77;100127.34;5548472;32;33985;-66
2022/06/10 13:11:10;;;;;;;4.28;2.30;;;;;;;29.08;48.89;100134.81;5546765;32;32937;-66
2022/06/10 13:14:24;;;;;;;3.10;2.20;;;;;;;28.90;48.59;100135.63;5539685;32;34541;-66
2022/06/10 13:17:29;;;;;;;3.60;2.17;;;;;;;29.10;49.82;100139.97;5546224;32;34159;-66
2022/06/10 13:20:38;;;;;;;3.22;2.47;;;;;;;31.02;43.68;100129.06;5547765;32;34384;-67
2022/06/10 13:24:01;;;;;;;6.28;1.77;;;;;;;35.28;35.66;100127.41;5546701;32;34038;-66
2022/06/10 13:27:21;;;;;;;2.85;1.70;;;;;;;36.12;32.76;100126.00;5547903;32;35270;-67
2022/06/10 13:30:29;;;;;;;6.50;1.92;;;;;;;30.95;42.64;100125.88;5547414;32;33829;-66
2022/06/10 13:33:32;;;;;;;2.78;1.58;;;;;;;32.53;39.86;100122.69;5547863;32;34644;-67
2022/06/10 13:36:42;;;;;;;3.30;1.83;;;;;;;34.82;35.40;100134.72;5533946;32;32742;-67
2022/06/10 13:39:50;;;;;;;3.03;1.77;;;;;;;35.49;33.35;100124.59;5543121;32;34659;-67
2022/06/10 13:42:57;;;;;;;2.83;1.75;;;;;;;35.29;33.49;100129.03;5539445;32;34020;-67
2022/06/10 13:46:00;;;;;;;2.78;1.75;;;;;;;36.21;32.70;100112.94;5531327;32;34150;-67
2022/06/10 13:49:18;;;;;;;3.40;1.92;;;;;;;37.00;30.78;100117.78;5528592;32;34354;-67
2022/06/10 13:52:30;;;;;;;2.03;1.83;;;;;;;36.60;30.16;100111.37;5528315;32;34193;-68
2022/06/10 13:55:35;;;;;;;2.70;1.80;;;;;;;33.64;34.27;100116.41;5528355;32;35083;-68
2022/06/10 13:58:43;;;;;;;6.57;2.12;;;;;;;33.12;35.95;100115.63;5528604;32;34427;-67
2022/06/10 14:01:49;;;;;;;2.28;2.08;;;;;;;33.12;35.76;100121.94;5528191;32;33715;-68
2022/06/10 14:04:54;;;;;;;4.47;2.20;;;;;;;35.38;33.87;100118.72;5531034;32;33915;-67
2022/06/10 14:08:00;;;;;;;4.40;2.10;;;;;;;35.34;34.20;100116.97;5527205;32;32590;-66
2022/06/10 14:11:33;;;;;;;3.67;2.28;;;;;;;36.86;32.12;100124.84;5527980;32;34053;-67
2022/06/10 14:14:38;;;;;;;3.33;2.00;;;;;;;35.27;34.29;100123.03;5527559;32;34244;-66
2022/06/10 14:17:50;;;;;;;4.87;2.30;;;;;;;34.67;35.44;100120.69;5528023;32;33975;-67
2022/06/10 14:20:59;;;;;;;8.02;2.00;;;;;;;35.24;34.79;100112.69;5528029;32;33836;-68
2022/06/10 14:24:21;;;;;;;3.03;2.20;;;;;;;33.45;37.42;100108.50;5526801;32;32796;-66
2022/06/10 14:27:27;;;;;;;2.65;1.85;;;;;;;31.56;41.60;100079.78;5527536;32;33799;-68
2022/06/10 14:30:33;;;;;;;2.53;1.95;;;;;;;30.18;45.21;100081.25;5527688;32;34034;-67
2022/06/10 14:33:45;;;;;;;5.18;2.03;;;;;;;30.42;44.04;100078.28;5527686;32;35153;-68
2022/06/10 14:37:02;;;;;;;6.45;2.83;;;;;;;30.28;43.84;100078.31;5527741;32;34292;-67
2022/06/10 14:40:19;;;;;;;3.22;2.28;;;;;;;31.02;41.69;100082.47;5526541;32;34901;-68
2022/06/10 14:43:25;;;;;;;4.35;2.03;;;;;;;31.28;41.56;100098.28;5531694;32;34240;-67
2022/06/10 14:46:30;;;;;;;2.85;2.30;;;;;;;30.88;42.22;100102.78;5545366;32;34108;-66
2022/06/10 14:49:45;;;;;;;5.72;2.30;;;;;;;29.39;46.11;100104.31;5532085;32;34032;-67
2022/06/10 14:52:52;;;;;;;2.85;2.12;;;;;;;29.64;46.31;100110.12;5532701;32;33988;-67